Time;durP1;ratioP1;P1;durP2;ratioP2;P2;SDS_P1;SDS_P2;PMS_P1;PMS_P2;Temp;Humidity;BMP_temperature;BMP_pressure;BME280_temperature;BME280_humidity;BME280_pressure;Samples;Min_cycle;Max_cycle;Signal;HPM_P1;HPM_P2
2023/03/04 00:02:23;;;;;;;7.20;6.50;;;;;;;20.15;34.00;95042.75;6163497;28;109066;-62
2023/03/04 00:05:26;;;;;;;6.90;6.37;;;;;;;20.15;34.14;95041.94;6163899;28;109433;-62
2023/03/04 00:08:31;;;;;;;6.70;6.10;;;;;;;20.14;34.04;95033.19;6152798;28;109278;-62
2023/03/04 00:11:34;;;;;;;6.83;6.23;;;;;;;20.15;33.78;95034.75;6163584;28;109952;-62
2023/03/04 00:14:37;;;;;;;6.20;5.70;;;;;;;20.05;34.01;95012.94;6162139;28;109165;-62
2023/03/04 00:17:41;;;;;;;6.43;5.93;;;;;;;20.15;33.98;95026.78;6157768;28;109533;-62
2023/03/04 00:20:45;;;;;;;6.27;5.77;;;;;;;20.15;34.19;95029.44;6160029;28;109535;-62
2023/03/04 00:23:50;;;;;;;5.87;5.43;;;;;;;20.14;33.94;95025.22;6163106;28;109210;-62
2023/03/04 00:26:53;;;;;;;6.27;5.77;;;;;;;20.15;34.15;95021.47;6162731;28;109237;-62
2023/03/04 00:29:56;;;;;;;6.13;5.63;;;;;;;20.14;33.92;95022.56;6152400;28;110275;-62
2023/03/04 00:32:59;;;;;;;6.93;6.37;;;;;;;20.08;33.89;95009.69;6163197;28;109689;-62
2023/03/04 00:36:03;;;;;;;6.37;5.87;;;;;;;20.15;34.13;95021.47;6162999;28;109168;-62
2023/03/04 00:39:08;;;;;;;5.40;5.00;;;;;;;20.14;34.13;95017.25;6162971;28;109193;-62
2023/03/04 00:42:11;;;;;;;5.70;5.30;;;;;;;20.14;33.94;95016.47;6151295;28;109163;-62
2023/03/04 00:45:14;;;;;;;5.80;5.30;;;;;;;20.15;34.04;95026.00;6162277;28;108709;-62
2023/03/04 00:48:17;;;;;;;6.07;5.50;;;;;;;20.16;34.15;95024.94;6162743;28;108932;-62
2023/03/04 00:51:20;;;;;;;6.00;5.50;;;;;;;20.12;33.99;95022.06;6157953;28;108783;-62
2023/03/04 00:54:25;;;;;;;6.07;5.57;;;;;;;20.12;33.94;95016.75;6156546;28;108926;-62
2023/03/04 00:57:28;;;;;;;6.40;5.90;;;;;;;20.15;33.94;95016.16;6162521;28;109143;-62
2023/03/04 01:00:31;;;;;;;5.90;5.40;;;;;;;20.14;34.00;95011.94;6162782;28;109263;-63
2023/03/04 01:03:34;;;;;;;6.07;5.57;;;;;;;20.15;34.18;95024.13;6162346;22;111831;-58
2023/03/04 01:06:37;;;;;;;5.77;5.30;;;;;;;20.15;34.11;95018.81;6162228;28;109832;-58
2023/03/04 01:09:42;;;;;;;5.80;5.30;;;;;;;20.15;33.85;95013.50;6161791;28;109572;-58
2023/03/04 01:12:45;;;;;;;5.80;5.30;;;;;;;20.05;34.00;94989.81;6161934;28;110280;-58
2023/03/04 01:15:48;;;;;;;5.40;5.00;;;;;;;20.14;33.97;95003.97;6150151;28;110128;-58
2023/03/04 01:18:52;;;;;;;6.53;5.93;;;;;;;20.14;33.97;95014.59;6161566;28;109054;-58
2023/03/04 01:21:55;;;;;;;5.47;5.07;;;;;;;20.13;34.15;95001.59;6161484;28;109653;-58
2023/03/04 01:24:59;;;;;;;5.13;4.73;;;;;;;20.14;33.86;94998.66;6160531;28;109200;-58
2023/03/04 01:28:03;;;;;;;5.30;4.90;;;;;;;20.01;34.10;94972.88;6150408;28;109198;-58
2023/03/04 01:31:06;;;;;;;5.27;4.87;;;;;;;20.15;34.04;94997.56;6161378;28;109244;-58
2023/03/04 01:34:09;;;;;;;5.60;5.20;;;;;;;20.12;33.89;94987.53;6161572;28;110188;-58
2023/03/04 01:37:13;;;;;;;5.00;4.63;;;;;;;20.15;34.03;94986.16;6156221;28;109509;-58
2023/03/04 01:40:18;;;;;;;5.60;5.20;;;;;;;20.15;33.98;94981.63;6157407;28;110170;-58
2023/03/04 01:43:24;;;;;;;5.37;4.97;;;;;;;20.13;33.89;94977.69;6161221;28;110202;-58
2023/03/04 01:46:28;;;;;;;5.10;4.70;;;;;;;20.13;34.07;94986.47;6160372;28;109740;-58
2023/03/04 01:49:31;;;;;;;5.33;4.93;;;;;;;20.10;34.14;94971.09;6149994;28;110396;-58
2023/03/04 01:52:34;;;;;;;5.70;5.30;;;;;;;20.14;34.07;94973.97;6161611;28;111458;-58
2023/03/04 01:55:39;;;;;;;4.80;4.40;;;;;;;20.14;33.88;94979.28;6160975;28;109337;-57
2023/03/04 01:58:43;;;;;;;5.00;4.50;;;;;;;20.13;33.94;94973.16;6161301;28;110460;-57
2023/03/04 02:01:47;;;;;;;5.27;4.87;;;;;;;20.14;33.90;94971.31;6150706;28;110890;-59
2023/03/04 02:04:51;;;;;;;4.97;4.57;;;;;;;20.13;33.96;94973.16;6142410;28;109033;-58
2023/03/04 02:07:56;;;;;;;5.63;5.13;;;;;;;20.09;34.02;94969.53;6136877;28;109333;-57
2023/03/04 02:11:00;;;;;;;5.23;4.83;;;;;;;20.13;33.96;94970.50;6131069;28;109159;-57
2023/03/04 02:14:04;;;;;;;4.80;4.40;;;;;;;20.03;34.04;94957.44;6130872;28;109168;-58
2023/03/04 02:17:11;;;;;;;5.17;4.77;;;;;;;20.12;33.88;94968.16;6135586;28;109928;-58
2023/03/04 02:20:28;;;;;;;4.70;4.40;;;;;;;20.13;34.00;94967.84;6136629;28;109335;-57
2023/03/04 02:23:37;;;;;;;5.57;5.17;;;;;;;20.13;34.06;94962.53;6125396;28;110544;-57
2023/03/04 02:26:43;;;;;;;5.33;4.93;;;;;;;20.13;34.06;94965.19;6136433;28;109228;-57
2023/03/04 02:29:46;;;;;;;5.13;4.73;;;;;;;20.13;34.11;94964.41;6136564;28;109095;-58
2023/03/04 02:32:49;;;;;;;5.20;4.80;;;;;;;20.12;33.97;94968.94;6136286;28;109084;-58
2023/03/04 02:35:52;;;;;;;5.50;5.10;;;;;;;20.11;33.85;94956.75;6126529;28;109853;-58
2023/03/04 02:39:01;;;;;;;5.50;5.10;;;;;;;20.09;34.13;94960.78;6144417;28;109075;-57
2023/03/04 02:42:06;;;;;;;4.60;4.30;;;;;;;20.10;34.04;94954.38;6144206;28;109465;-57
2023/03/04 02:45:37;;;;;;;4.80;4.40;;;;;;;20.13;33.99;94959.09;6139208;28;110055;-58
2023/03/04 02:48:40;;;;;;;4.77;4.43;;;;;;;20.04;34.13;94940.44;6143075;28;111177;-57
2023/03/04 02:51:43;;;;;;;5.00;4.60;;;;;;;20.12;33.98;94958.31;6144258;28;109860;-57
2023/03/04 02:54:47;;;;;;;5.30;4.90;;;;;;;20.11;34.04;94955.97;6144500;28;110250;-57
2023/03/04 02:57:52;;;;;;;5.50;5.10;;;;;;;20.12;34.04;94957.53;6134163;28;111697;-57
2023/03/04 03:00:55;;;;;;;4.57;4.27;;;;;;;20.12;34.06;94960.97;6144066;28;109110;-57
2023/03/04 03:03:58;;;;;;;4.40;4.10;;;;;;;20.11;33.89;94951.44;6143087;28;109681;-57
2023/03/04 03:07:01;;;;;;;4.87;4.53;;;;;;;20.10;33.78;94947.19;6143753;28;109158;-57
2023/03/04 03:10:05;;;;;;;4.90;4.60;;;;;;;20.12;33.77;94953.00;6133318;28;109050;-58
2023/03/04 03:13:09;;;;;;;5.13;4.73;;;;;;;20.12;33.98;94958.31;6143857;28;109047;-57
2023/03/04 03:16:12;;;;;;;4.90;4.50;;;;;;;20.11;33.91;94954.09;6143913;28;109180;-58
2023/03/04 03:19:16;;;;;;;5.07;4.67;;;;;;;20.12;33.80;94954.88;6137662;28;110358;-57
2023/03/04 03:22:19;;;;;;;5.43;5.00;;;;;;;20.11;34.12;94955.97;6138417;28;109908;-58
2023/03/04 03:25:22;;;;;;;4.93;4.53;;;;;;;20.11;33.94;94958.63;6143721;28;109232;-57
2023/03/04 03:28:26;;;;;;;4.60;4.27;;;;;;;20.03;33.78;94944.16;6143525;28;109779;-57
2023/03/04 03:31:30;;;;;;;5.10;4.70;;;;;;;20.10;33.96;94955.16;6132900;28;110198;-58
2023/03/04 03:34:33;;;;;;;4.80;4.50;;;;;;;20.10;33.99;94949.84;6143502;28;109027;-57
2023/03/04 03:37:36;;;;;;;4.97;4.63;;;;;;;20.10;33.83;94943.75;6143086;28;110089;-57
2023/03/04 03:40:39;;;;;;;5.00;4.60;;;;;;;20.07;33.90;94934.50;6143684;28;109361;-57
2023/03/04 03:43:44;;;;;;;5.10;4.70;;;;;;;19.98;34.00;94917.69;6132707;28;109261;-58
2023/03/04 03:46:47;;;;;;;4.50;4.20;;;;;;;20.09;34.04;94942.97;6143345;28;110020;-57
2023/03/04 03:49:50;;;;;;;4.40;4.10;;;;;;;20.09;33.99;94942.97;6137592;28;110130;-57
2023/03/04 03:52:53;;;;;;;4.60;4.30;;;;;;;20.08;33.87;94941.41;6138785;28;109104;-57
2023/03/04 03:55:57;;;;;;;5.10;4.70;;;;;;;20.08;33.98;94944.06;6130120;28;109064;-58
2023/03/04 03:59:02;;;;;;;5.20;4.77;;;;;;;20.08;33.88;94941.41;6139004;28;108956;-57
2023/03/04 04:02:05;;;;;;;5.70;5.30;;;;;;;20.08;33.98;94936.09;6139122;28;109158;-57
2023/03/04 04:05:10;;;;;;;5.00;4.60;;;;;;;20.08;33.95;94930.78;6127926;28;109767;-59
2023/03/04 04:08:14;;;;;;;4.93;4.53;;;;;;;20.07;34.07;94929.19;6138390;28;109450;-58
2023/03/04 04:11:17;;;;;;;5.27;4.87;;;;;;;20.09;33.45;94931.56;6139135;28;109691;-59
2023/03/04 04:14:22;;;;;;;5.00;4.60;;;;;;;20.08;34.01;94936.09;6138879;28;112286;-58
2023/03/04 04:17:25;;;;;;;4.77;4.47;;;;;;;20.08;33.98;94940.63;6127852;28;110571;-58
2023/03/04 04:20:28;;;;;;;4.50;4.20;;;;;;;20.07;33.99;94931.84;6138137;28;109360;-59
2023/03/04 04:23:31;;;;;;;5.70;5.20;;;;;;;20.07;33.85;94933.72;6138723;28;109269;-57
2023/03/04 04:26:34;;;;;;;5.40;5.00;;;;;;;20.08;33.89;94935.31;6138630;28;110411;-58
2023/03/04 04:29:40;;;;;;;4.70;4.40;;;;;;;20.04;33.90;94937.75;6127580;28;110424;-58
2023/03/04 04:32:43;;;;;;;4.93;4.63;;;;;;;20.06;33.91;94938.25;6138665;28;109545;-58
2023/03/04 04:35:46;;;;;;;5.30;4.90;;;;;;;20.06;33.81;94935.59;6138482;28;110176;-58
2023/03/04 04:38:49;;;;;;;4.60;4.30;;;;;;;20.07;33.93;94933.72;6133276;28;110026;-57
2023/03/04 04:41:52;;;;;;;5.40;5.00;;;;;;;20.06;33.82;94932.94;6132765;28;109217;-57
2023/03/04 04:44:57;;;;;;;4.43;4.13;;;;;;;20.05;33.81;94926.06;6138906;28;109870;-57
2023/03/04 04:48:00;;;;;;;4.30;4.00;;;;;;;20.05;33.84;94933.25;6138232;28;109127;-57
2023/03/04 04:51:04;;;;;;;5.07;4.67;;;;;;;20.05;33.88;94925.28;6126095;28;110287;-57
2023/03/04 04:54:07;;;;;;;5.30;4.90;;;;;;;20.06;33.85;94938.25;6138331;28;109180;-57
2023/03/04 04:57:10;;;;;;;5.10;4.70;;;;;;;20.06;33.84;94940.13;6138299;28;110144;-57
2023/03/04 05:00:17;;;;;;;4.67;4.30;;;;;;;20.05;33.90;94941.22;6136986;28;109079;-59
2023/03/04 05:03:21;;;;;;;4.57;4.20;;;;;;;20.01;33.88;94941.00;6126016;28;110172;-57
2023/03/04 05:06:25;;;;;;;4.67;4.37;;;;;;;20.06;33.69;94948.09;6137683;28;109338;-57
2023/03/04 05:09:28;;;;;;;5.03;4.70;;;;;;;20.06;34.02;94948.88;6137985;28;109596;-57
2023/03/04 05:12:32;;;;;;;5.20;4.80;;;;;;;20.06;33.76;94954.19;6134024;28;110744;-57
2023/03/04 05:15:38;;;;;;;4.77;4.37;;;;;;;20.06;33.94;94951.53;6131982;28;110887;-57
2023/03/04 05:18:41;;;;;;;5.30;4.90;;;;;;;20.05;33.65;94957.94;6137899;28;110504;-57
2023/03/04 05:21:44;;;;;;;4.23;3.93;;;;;;;19.96;33.69;94941.09;6136507;28;109223;-57
2023/03/04 05:24:47;;;;;;;5.43;4.97;;;;;;;20.04;33.76;94961.66;6126333;28;111666;-58
2023/03/04 05:27:51;;;;;;;5.10;4.70;;;;;;;20.04;33.73;94956.38;6137165;28;109887;-58
2023/03/04 05:30:55;;;;;;;5.63;5.20;;;;;;;20.03;33.81;94962.75;6137544;28;109190;-57
2023/03/04 05:33:58;;;;;;;4.93;4.57;;;;;;;20.06;33.94;94977.31;6137221;28;109123;-57
2023/03/04 05:37:01;;;;;;;4.40;4.10;;;;;;;20.05;33.56;94978.41;6126374;28;109243;-58
2023/03/04 05:40:05;;;;;;;5.20;4.80;;;;;;;20.04;33.65;94982.91;6137600;28;108888;-58
2023/03/04 05:43:09;;;;;;;4.80;4.40;;;;;;;20.05;33.68;94978.41;6137154;28;109125;-57
2023/03/04 05:46:15;;;;;;;5.10;4.70;;;;;;;20.00;33.71;94971.31;6137262;28;110201;-58
2023/03/04 05:49:18;;;;;;;5.23;4.83;;;;;;;20.03;33.61;94976.81;6126056;28;109040;-58
2023/03/04 05:52:22;;;;;;;5.17;4.77;;;;;;;20.02;33.67;94977.13;6136282;28;111208;-57
2023/03/04 05:55:26;;;;;;;4.57;4.27;;;;;;;20.03;33.54;94976.81;6136906;28;109229;-57
2023/03/04 05:58:29;;;;;;;5.00;4.60;;;;;;;20.04;33.74;94982.91;6130995;28;109178;-57
2023/03/04 06:01:34;;;;;;;5.10;4.70;;;;;;;20.04;33.66;94988.22;6132774;28;109245;-57
2023/03/04 06:04:37;;;;;;;5.47;5.07;;;;;;;20.03;33.56;94987.44;6136404;28;109135;-57
2023/03/04 06:07:41;;;;;;;5.20;4.80;;;;;;;20.06;33.62;94987.94;6136659;28;109208;-57
2023/03/04 06:10:45;;;;;;;4.80;4.40;;;;;;;20.07;33.44;94992.94;6125998;28;109493;-57
2023/03/04 06:13:48;;;;;;;5.10;4.70;;;;;;;20.07;33.61;94992.16;6136936;28;108906;-57
2023/03/04 06:16:53;;;;;;;4.80;4.50;;;;;;;20.00;33.57;94977.41;6136420;28;108737;-58
2023/03/04 06:19:56;;;;;;;5.20;4.80;;;;;;;20.10;33.54;94996.88;6136619;28;109193;-58
2023/03/04 06:22:59;;;;;;;4.60;4.30;;;;;;;20.09;33.49;94996.09;6125127;28;110410;-58
2023/03/04 06:26:02;;;;;;;5.37;4.97;;;;;;;20.10;33.58;94991.56;6136861;28;109177;-57
2023/03/04 06:29:06;;;;;;;5.53;5.13;;;;;;;20.02;33.41;94980.56;6136504;28;109827;-57
2023/03/04 06:32:11;;;;;;;5.13;4.67;;;;;;;20.09;33.52;94992.66;6131642;28;109109;-58
2023/03/04 06:35:16;;;;;;;6.20;5.70;;;;;;;20.10;33.55;94997.69;6130867;28;109779;-58
2023/03/04 06:38:19;;;;;;;5.50;5.10;;;;;;;20.09;33.55;95004.06;6136850;28;109482;-58
2023/03/04 06:41:22;;;;;;;5.83;5.33;;;;;;;20.08;33.73;94999.06;6136442;28;109381;-57
2023/03/04 06:44:25;;;;;;;5.37;4.97;;;;;;;20.08;33.51;95009.69;6125716;28;109126;-58
2023/03/04 06:47:30;;;;;;;5.73;5.23;;;;;;;19.96;33.79;94999.53;6136236;28;109375;-59
2023/03/04 06:50:34;;;;;;;5.10;4.70;;;;;;;19.99;33.59;95005.03;6135904;28;110019;-59
2023/03/04 06:53:37;;;;;;;5.33;4.93;;;;;;;20.07;33.63;95016.84;6135520;28;109525;-59
2023/03/04 06:56:41;;;;;;;5.10;4.70;;;;;;;20.06;33.55;95015.28;6125189;28;109427;-59
2023/03/04 06:59:44;;;;;;;5.83;5.33;;;;;;;20.05;33.75;95013.72;6136237;28;109242;-58
2023/03/04 07:02:48;;;;;;;6.10;5.60;;;;;;;20.04;33.57;95014.78;6135906;28;109644;-56
2023/03/04 07:05:51;;;;;;;5.57;5.17;;;;;;;20.05;33.52;95011.06;6135825;28;109193;-57
2023/03/04 07:08:55;;;;;;;5.50;5.10;;;;;;;20.05;33.70;95019.03;6124471;28;109543;-58
2023/03/04 07:11:58;;;;;;;6.33;5.83;;;;;;;20.05;33.56;95023.56;6135681;28;109041;-58
2023/03/04 07:15:01;;;;;;;6.00;5.50;;;;;;;20.01;33.65;95016.16;6135694;28;109360;-58
2023/03/04 07:18:06;;;;;;;5.90;5.43;;;;;;;20.05;33.76;95015.59;6127305;28;110735;-57
2023/03/04 07:21:09;;;;;;;5.90;5.40;;;;;;;20.04;33.61;95030.72;6134826;28;109755;-57
2023/03/04 07:24:12;;;;;;;6.20;5.70;;;;;;;20.04;33.72;95025.41;6137374;28;109616;-57
2023/03/04 07:27:15;;;;;;;5.93;5.40;;;;;;;20.02;33.59;95027.59;6139409;28;109022;-59
2023/03/04 07:30:18;;;;;;;5.80;5.40;;;;;;;19.90;33.70;95009.44;6128449;28;109556;-59
2023/03/04 07:33:23;;;;;;;5.40;5.00;;;;;;;20.02;33.78;95024.94;6139818;28;109955;-57
2023/03/04 07:36:27;;;;;;;6.30;5.80;;;;;;;20.01;33.67;95026.00;6139410;28;109006;-57
2023/03/04 07:39:30;;;;;;;6.20;5.70;;;;;;;20.02;33.49;95025.72;6139302;28;109328;-57
2023/03/04 07:42:33;;;;;;;6.63;6.10;;;;;;;20.03;33.58;95021.19;6129018;28;109477;-57
2023/03/04 07:45:37;;;;;;;5.93;5.53;;;;;;;20.03;33.68;95024.63;6140343;28;109287;-60
2023/03/04 07:48:41;;;;;;;6.37;5.77;;;;;;;20.04;33.71;95025.41;6139318;28;109067;-58
2023/03/04 07:51:44;;;;;;;6.13;5.63;;;;;;;20.02;33.55;95019.63;6133956;28;110259;-58
2023/03/04 07:54:47;;;;;;;6.30;5.80;;;;;;;20.03;33.85;95021.97;6145910;28;110054;-58
2023/03/04 07:57:51;;;;;;;6.80;6.20;;;;;;;20.03;33.72;95019.31;6163375;28;109314;-58
2023/03/04 08:00:54;;;;;;;6.00;5.53;;;;;;;20.05;33.77;95021.69;6163437;28;109475;-57
2023/03/04 08:03:59;;;;;;;6.53;6.03;;;;;;;20.05;33.64;95020.91;6152659;28;109706;-57
2023/03/04 08:07:02;;;;;;;6.40;5.90;;;;;;;20.05;33.71;95019.03;6163656;28;110028;-57
2023/03/04 08:10:06;;;;;;;6.40;5.90;;;;;;;20.05;33.37;95015.59;6163481;28;110354;-57
2023/03/04 08:13:10;;;;;;;6.13;5.63;;;;;;;20.04;33.77;95014.78;6163399;28;110177;-58
2023/03/04 08:16:15;;;;;;;5.97;5.47;;;;;;;19.96;33.60;95005.63;6152469;28;110714;-57
2023/03/04 08:19:19;;;;;;;6.67;6.17;;;;;;;20.06;33.58;95017.94;6163067;28;110224;-57
2023/03/04 08:22:23;;;;;;;6.30;5.80;;;;;;;20.06;33.52;95015.28;6163119;28;109126;-57
2023/03/04 08:25:26;;;;;;;6.60;6.10;;;;;;;20.05;33.67;95016.38;6161881;28;109664;-58
2023/03/04 08:28:29;;;;;;;6.20;5.70;;;;;;;20.05;33.58;95007.63;6153231;28;109463;-58
2023/03/04 08:31:33;;;;;;;6.87;6.27;;;;;;;20.06;33.75;95012.63;6162584;28;109240;-57
2023/03/04 08:34:39;;;;;;;5.90;5.40;;;;;;;20.03;33.69;94999.94;6162797;28;109621;-58
2023/03/04 08:37:43;;;;;;;6.50;6.00;;;;;;;20.07;33.72;95008.88;6153501;28;111457;-59
2023/03/04 08:40:52;;;;;;;6.30;5.80;;;;;;;20.07;33.50;95008.88;6162117;28;109326;-60
2023/03/04 08:43:55;;;;;;;6.23;5.73;;;;;;;20.08;33.68;95007.81;6162820;28;109447;-58
2023/03/04 08:46:59;;;;;;;6.80;6.20;;;;;;;20.08;33.56;94999.84;6162680;28;109238;-58
2023/03/04 08:50:03;;;;;;;6.43;5.93;;;;;;;20.11;33.58;95006.44;6150578;28;109207;-58
2023/03/04 08:53:07;;;;;;;6.57;6.07;;;;;;;20.11;33.69;94999.25;6162548;28;110491;-58
2023/03/04 08:56:11;;;;;;;6.70;6.10;;;;;;;20.12;33.39;94998.16;6161790;28;110090;-58
2023/03/04 08:59:14;;;;;;;6.60;6.10;;;;;;;20.14;33.53;94998.66;6162103;28;109067;-57
2023/03/04 09:02:17;;;;;;;6.77;6.17;;;;;;;20.15;33.49;94989.59;6151091;28;111985;-58
2023/03/04 09:05:22;;;;;;;6.27;5.70;;;;;;;20.16;33.55;94990.38;6161355;28;109058;-57
2023/03/04 09:08:25;;;;;;;7.03;6.43;;;;;;;20.09;33.55;94980.16;6162214;28;109943;-57
2023/03/04 09:11:28;;;;;;;6.30;5.80;;;;;;;20.16;33.48;94985.88;6156693;28;109283;-57
2023/03/04 09:14:34;;;;;;;6.30;5.80;;;;;;;20.18;33.64;94993.56;6156826;28;108978;-57
2023/03/04 09:17:38;;;;;;;6.67;6.13;;;;;;;20.17;33.67;94976.06;6162609;28;110023;-57
2023/03/04 09:20:42;;;;;;;6.27;5.77;;;;;;;20.17;33.58;94987.47;6161778;28;109339;-57
2023/03/04 09:23:45;;;;;;;6.07;5.57;;;;;;;20.15;33.52;94975.53;6150478;28;109416;-58
2023/03/04 09:26:50;;;;;;;6.30;5.73;;;;;;;20.17;33.39;94976.84;6161060;28;108965;-59
2023/03/04 09:29:53;;;;;;;6.07;5.57;;;;;;;20.18;33.42;94972.31;6161629;28;109171;-59
2023/03/04 09:32:56;;;;;;;6.20;5.70;;;;;;;20.18;33.59;94977.63;6161904;28;109642;-57
2023/03/04 09:36:01;;;;;;;6.57;5.97;;;;;;;20.17;33.73;94973.41;6149831;28;109035;-57
2023/03/04 09:39:04;;;;;;;6.57;5.97;;;;;;;20.18;33.56;94969.66;6161934;28;110631;-58
2023/03/04 09:42:12;;;;;;;5.60;5.20;;;;;;;20.17;33.77;94974.19;6161536;28;109398;-57
2023/03/04 09:45:20;;;;;;;6.17;5.67;;;;;;;20.15;33.67;94967.56;6155745;28;109643;-58
2023/03/04 09:48:27;;;;;;;6.97;6.37;;;;;;;20.15;33.66;94963.03;6155757;28;109452;-58
2023/03/04 09:51:55;;;;;;;6.47;5.97;;;;;;;20.17;33.60;94963.56;6161635;28;109084;-57
2023/03/04 09:55:06;;;;;;;6.33;5.83;;;;;;;20.11;33.88;94950.66;6161768;28;109050;-58
2023/03/04 09:58:21;;;;;;;7.23;6.53;;;;;;;20.18;33.72;94954.50;6149690;28;109623;-56
2023/03/04 10:01:31;;;;;;;6.07;5.67;;;;;;;20.17;33.65;94955.59;6162198;28;109073;-57
2023/03/04 10:04:39;;;;;;;6.50;5.90;;;;;;;20.17;33.74;94950.28;6161509;28;110830;-57
2023/03/04 10:07:48;;;;;;;7.13;6.53;;;;;;;20.16;33.65;94943.34;6160977;28;109060;-57
2023/03/04 10:10:52;;;;;;;6.70;6.10;;;;;;;20.16;33.87;94948.66;6156414;28;108691;-56
2023/03/04 10:14:04;;;;;;;6.93;6.33;;;;;;;20.16;33.42;94940.69;6162320;28;109425;-57
2023/03/04 10:17:14;;;;;;;6.70;6.20;;;;;;;20.17;33.84;94942.31;6161432;28;109207;-58
2023/03/04 10:20:22;;;;;;;5.70;5.30;;;;;;;20.16;33.74;94939.91;6151559;28;109683;-57
2023/03/04 10:23:29;;;;;;;6.67;6.17;;;;;;;20.17;33.67;94933.53;6161847;28;110044;-57
2023/03/04 10:26:33;;;;;;;6.20;5.70;;;;;;;20.17;33.75;94933.53;6161229;28;109067;-57
2023/03/04 10:29:36;;;;;;;6.50;5.97;;;;;;;20.18;33.72;94929.81;6160383;28;109423;-58
2023/03/04 10:32:46;;;;;;;6.50;6.00;;;;;;;20.09;33.52;94911.09;6150275;28;109130;-58
2023/03/04 10:35:55;;;;;;;5.93;5.47;;;;;;;20.17;33.64;94923.69;6161492;28;109228;-57
2023/03/04 10:39:02;;;;;;;6.30;5.80;;;;;;;20.19;33.57;94915.44;6161290;28;110144;-57
2023/03/04 10:42:07;;;;;;;6.50;6.00;;;;;;;20.20;33.84;94912.47;6156266;28;111048;-59
2023/03/04 10:45:26;;;;;;;6.80;6.20;;;;;;;20.22;33.44;94912.19;6155818;28;110396;-57
2023/03/04 10:48:31;;;;;;;6.47;5.97;;;;;;;20.23;33.56;94909.22;6160357;28;109056;-58
2023/03/04 10:51:42;;;;;;;6.80;6.20;;;;;;;20.26;33.57;94899.91;6160896;28;109250;-57
2023/03/04 10:54:50;;;;;;;6.60;6.10;;;;;;;20.27;33.45;94898.81;6149133;28;108816;-57
2023/03/04 10:57:56;;;;;;;6.13;5.63;;;;;;;20.31;33.50;94889.94;6162580;28;109108;-58
2023/03/04 11:01:03;;;;;;;5.83;5.40;;;;;;;20.32;33.59;94880.88;6164070;28;109270;-58
2023/03/04 11:04:18;;;;;;;5.93;5.43;;;;;;;20.35;33.42;94871.56;6163551;28;110256;-57
2023/03/04 11:07:22;;;;;;;6.23;5.70;;;;;;;20.36;33.40;94867.03;6154576;28;110606;-57
2023/03/04 11:10:31;;;;;;;6.10;5.60;;;;;;;20.36;33.25;94861.72;6164602;28;109322;-57
2023/03/04 11:13:35;;;;;;;6.57;6.07;;;;;;;20.30;33.49;94853.84;6164482;28;109122;-58
2023/03/04 11:16:38;;;;;;;6.83;6.27;;;;;;;20.34;33.26;94855.91;6156556;28;109537;-57
2023/03/04 11:19:47;;;;;;;6.37;5.87;;;;;;;20.35;33.47;94849.50;6164199;28;110139;-58
2023/03/04 11:22:52;;;;;;;6.00;5.50;;;;;;;20.30;33.71;94832.56;6164701;28;109068;-61
2023/03/04 11:26:02;;;;;;;6.40;5.90;;;;;;;20.35;33.56;94839.66;6164550;28;110682;-58
2023/03/04 11:29:13;;;;;;;5.53;5.13;;;;;;;20.37;33.52;94834.84;6153912;28;109283;-59
2023/03/04 11:32:22;;;;;;;6.43;5.93;;;;;;;20.38;33.53;94830.31;6163238;28;109190;-58
2023/03/04 11:35:31;;;;;;;6.60;6.10;;;;;;;20.37;33.45;94826.09;6164168;28;109579;-58
2023/03/04 11:38:39;;;;;;;6.53;6.03;;;;;;;20.37;33.66;94820.75;6163012;28;110063;-58
2023/03/04 11:41:52;;;;;;;6.70;6.10;;;;;;;20.37;33.50;94815.44;6157856;28;109698;-58
2023/03/04 11:44:56;;;;;;;5.87;5.47;;;;;;;20.29;33.56;94798.34;6163830;28;109111;-61
2023/03/04 11:48:09;;;;;;;6.27;5.80;;;;;;;20.38;33.35;94814.38;6163939;28;109309;-58
2023/03/04 11:51:19;;;;;;;6.67;6.17;;;;;;;20.39;33.43;94815.94;6153409;28;109478;-57
2023/03/04 11:54:32;;;;;;;6.23;5.77;;;;;;;20.39;33.64;94805.31;6164498;28;109414;-58
2023/03/04 11:57:52;;;;;;;6.30;5.80;;;;;;;20.38;33.46;94801.88;6163676;28;109033;-58
2023/03/04 12:01:01;;;;;;;6.03;5.53;;;;;;;20.37;33.45;94791.53;6163472;28;109108;-58
2023/03/04 12:04:28;;;;;;;6.07;5.57;;;;;;;20.38;33.36;94788.56;6151729;28;110132;-58
2023/03/04 12:07:46;;;;;;;5.83;5.40;;;;;;;20.39;33.60;94792.00;6163583;28;109026;-65
2023/03/04 12:10:56;;;;;;;6.30;5.80;;;;;;;20.38;33.42;94787.78;6163185;28;109139;-58
2023/03/04 12:14:22;;;;;;;6.40;5.90;;;;;;;20.38;33.64;94780.59;6152225;28;110076;-57
2023/03/04 12:17:44;;;;;;;6.30;5.80;;;;;;;20.38;34.04;94777.94;6162169;28;110235;-57
2023/03/04 12:21:08;;;;;;;6.47;5.97;;;;;;;20.39;33.59;94776.06;6163616;28;109053;-57
2023/03/04 12:24:34;;;;;;;6.47;5.97;;;;;;;20.39;33.50;94770.75;6158922;28;110941;-58
2023/03/04 12:27:44;;;;;;;6.50;6.00;;;;;;;20.40;33.64;94769.66;6158106;28;110203;-57
2023/03/04 12:31:04;;;;;;;5.80;5.30;;;;;;;20.39;33.42;94770.75;6163616;28;109545;-58
2023/03/04 12:34:30;;;;;;;5.90;5.30;;;;;;;20.38;33.62;94763.88;6163088;28;110054;-57
2023/03/04 12:38:03;;;;;;;6.77;6.27;;;;;;;20.37;33.47;94764.97;6151238;28;109540;-57
2023/03/04 12:41:23;;;;;;;6.43;5.93;;;;;;;20.07;33.60;94719.38;6162642;28;109449;-57
2023/03/04 12:44:27;;;;;;;6.83;6.27;;;;;;;20.35;33.53;94759.16;6162930;28;110510;-57
2023/03/04 12:47:41;;;;;;;6.40;5.90;;;;;;;20.29;33.57;94747.84;6153921;28;110289;-57
2023/03/04 12:50:58;;;;;;;6.13;5.63;;;;;;;20.34;33.54;94757.59;6162494;28;110113;-57
2023/03/04 12:54:13;;;;;;;6.13;5.63;;;;;;;20.33;33.72;94748.81;6162856;28;109893;-57
2023/03/04 12:57:19;;;;;;;5.63;5.23;;;;;;;20.32;33.50;94745.38;6162601;28;110263;-58
2023/03/04 13:00:35;;;;;;;6.40;5.90;;;;;;;20.32;33.50;94739.28;6152063;28;110304;-58
2023/03/04 13:03:48;;;;;;;5.67;5.27;;;;;;;20.31;33.42;94727.84;6162139;28;109652;-58
2023/03/04 13:07:08;;;;;;;6.27;5.77;;;;;;;20.33;33.47;94727.56;6162080;28;109041;-57
2023/03/04 13:10:18;;;;;;;5.80;5.40;;;;;;;20.31;33.81;94727.84;6151406;28;108870;-57
2023/03/04 13:13:38;;;;;;;6.43;5.93;;;;;;;20.31;33.65;94722.53;6161832;28;109318;-58
2023/03/04 13:16:43;;;;;;;5.40;5.00;;;;;;;20.32;33.76;94720.66;6161129;28;109732;-58
2023/03/04 13:19:56;;;;;;;5.67;5.17;;;;;;;20.31;33.69;94721.75;6162026;28;108942;-57
2023/03/04 13:23:00;;;;;;;5.73;5.33;;;;;;;20.30;33.52;94710.34;6150489;28;110745;-59
2023/03/04 13:26:23;;;;;;;6.17;5.67;;;;;;;20.30;33.28;94714.88;6161773;28;109332;-58
2023/03/04 13:29:35;;;;;;;6.20;5.80;;;;;;;20.21;33.67;94700.72;6162027;28;109775;-58
2023/03/04 13:32:39;;;;;;;5.63;5.20;;;;;;;20.22;33.79;94700.44;6156168;28;109033;-58
2023/03/04 13:36:00;;;;;;;5.87;5.37;;;;;;;20.29;33.50;94710.66;6156227;28;109180;-58
2023/03/04 13:39:23;;;;;;;5.20;4.80;;;;;;;20.28;33.52;94707.22;6162222;28;110205;-57
2023/03/04 13:42:40;;;;;;;5.80;5.30;;;;;;;20.29;33.65;94708.78;6160799;28;109004;-56
2023/03/04 13:45:43;;;;;;;5.83;5.33;;;;;;;20.28;33.62;94703.75;6151283;28;110855;-58
2023/03/04 13:49:02;;;;;;;5.40;5.00;;;;;;;20.29;33.55;94700.03;6161820;28;110182;-57
2023/03/04 13:52:43;;;;;;;5.60;5.20;;;;;;;20.28;33.85;94704.53;6161404;28;109303;-58
2023/03/04 13:56:04;;;;;;;5.67;5.27;;;;;;;20.25;33.69;94694.53;6150990;28;109522;-58
2023/03/04 13:59:21;;;;;;;5.67;5.27;;;;;;;20.30;34.00;94693.63;6161453;28;109136;-58
2023/03/04 14:02:26;;;;;;;5.40;5.00;;;;;;;20.28;33.63;94691.25;6161529;28;109894;-58
2023/03/04 14:05:29;;;;;;;5.50;5.10;;;;;;;20.30;33.50;94689.09;6161321;28;109461;-58
2023/03/04 14:08:32;;;;;;;5.40;5.00;;;;;;;20.29;33.71;94684.06;6150125;28;110942;-58
2023/03/04 14:11:41;;;;;;;6.80;6.20;;;;;;;20.29;33.49;94687.53;6161484;28;110277;-58
2023/03/04 14:14:49;;;;;;;5.37;4.97;;;;;;;20.30;33.67;94683.78;6159876;28;109038;-58
2023/03/04 14:17:54;;;;;;;4.90;4.60;;;;;;;20.30;33.59;94685.66;6155755;28;109086;-58
2023/03/04 14:21:00;;;;;;;5.20;4.80;;;;;;;20.28;33.80;94670.00;6154989;28;109057;-58
2023/03/04 14:24:06;;;;;;;5.33;4.93;;;;;;;20.30;33.60;94675.00;6160892;28;108978;-58
2023/03/04 14:27:14;;;;;;;5.43;5.03;;;;;;;20.30;33.67;94669.69;6160668;28;109090;-59